sensor_id;sensor_type;location;lat;lon;timestamp;P1;durP1;ratioP1;P2;durP2;ratioP2
7961;SDS011;4026;43.652;24.906;2023-03-03T00:01:13;1.90;;;1.33;;
7961;SDS011;4026;43.652;24.906;2023-03-03T00:03:40;2.87;;;1.87;;
7961;SDS011;4026;43.652;24.906;2023-03-03T00:06:08;3.33;;;1.93;;
7961;SDS011;4026;43.652;24.906;2023-03-03T00:08:38;3.60;;;2.97;;
7961;SDS011;4026;43.652;24.906;2023-03-03T00:11:06;2.77;;;2.37;;
7961;SDS011;4026;43.652;24.906;2023-03-03T00:13:37;4.20;;;2.10;;
7961;SDS011;4026;43.652;24.906;2023-03-03T00:16:12;1.87;;;1.70;;
7961;SDS011;4026;43.652;24.906;2023-03-03T00:18:41;1.77;;;1.67;;
7961;SDS011;4026;43.652;24.906;2023-03-03T00:21:23;4.67;;;2.80;;
7961;SDS011;4026;43.652;24.906;2023-03-03T00:23:54;2.47;;;1.70;;
7961;SDS011;4026;43.652;24.906;2023-03-03T00:26:38;3.77;;;2.40;;
7961;SDS011;4026;43.652;24.906;2023-03-03T00:29:22;2.50;;;1.80;;
7961;SDS011;4026;43.652;24.906;2023-03-03T00:31:52;3.20;;;2.33;;
7961;SDS011;4026;43.652;24.906;2023-03-03T00:34:23;2.20;;;1.77;;
7961;SDS011;4026;43.652;24.906;2023-03-03T00:36:52;1.77;;;1.63;;
7961;SDS011;4026;43.652;24.906;2023-03-03T00:39:25;2.80;;;1.77;;
7961;SDS011;4026;43.652;24.906;2023-03-03T00:41:54;3.13;;;2.13;;
7961;SDS011;4026;43.652;24.906;2023-03-03T00:44:34;3.03;;;2.10;;
7961;SDS011;4026;43.652;24.906;2023-03-03T00:47:21;1.97;;;1.30;;
7961;SDS011;4026;43.652;24.906;2023-03-03T00:49:51;3.07;;;2.33;;
7961;SDS011;4026;43.652;24.906;2023-03-03T00:52:24;4.00;;;1.67;;
7961;SDS011;4026;43.652;24.906;2023-03-03T00:54:55;1.57;;;1.47;;
7961;SDS011;4026;43.652;24.906;2023-03-03T00:57:21;2.67;;;2.00;;
7961;SDS011;4026;43.652;24.906;2023-03-03T00:59:48;3.53;;;2.30;;
7961;SDS011;4026;43.652;24.906;2023-03-03T01:02:15;2.47;;;1.30;;
7961;SDS011;4026;43.652;24.906;2023-03-03T01:04:42;2.67;;;1.93;;
7961;SDS011;4026;43.652;24.906;2023-03-03T01:07:14;3.33;;;2.37;;
7961;SDS011;4026;43.652;24.906;2023-03-03T01:09:41;3.47;;;1.90;;
7961;SDS011;4026;43.652;24.906;2023-03-03T01:12:09;2.83;;;1.90;;
7961;SDS011;4026;43.652;24.906;2023-03-03T01:14:37;4.00;;;2.60;;
7961;SDS011;4026;43.652;24.906;2023-03-03T01:17:05;1.97;;;1.80;;
7961;SDS011;4026;43.652;24.906;2023-03-03T01:19:32;4.33;;;1.60;;
7961;SDS011;4026;43.652;24.906;2023-03-03T01:21:59;4.37;;;2.87;;
7961;SDS011;4026;43.652;24.906;2023-03-03T01:24:26;1.77;;;1.63;;
7961;SDS011;4026;43.652;24.906;2023-03-03T01:26:53;3.73;;;2.43;;
7961;SDS011;4026;43.652;24.906;2023-03-03T01:29:21;3.80;;;2.23;;
7961;SDS011;4026;43.652;24.906;2023-03-03T01:31:48;4.23;;;2.80;;
7961;SDS011;4026;43.652;24.906;2023-03-03T01:34:15;3.40;;;1.93;;
7961;SDS011;4026;43.652;24.906;2023-03-03T01:36:42;4.93;;;2.17;;
7961;SDS011;4026;43.652;24.906;2023-03-03T01:39:09;2.00;;;1.83;;
7961;SDS011;4026;43.652;24.906;2023-03-03T01:41:36;3.17;;;2.07;;
7961;SDS011;4026;43.652;24.906;2023-03-03T01:44:03;1.90;;;1.80;;
7961;SDS011;4026;43.652;24.906;2023-03-03T01:46:33;4.17;;;2.20;;
7961;SDS011;4026;43.652;24.906;2023-03-03T01:49:10;3.97;;;1.87;;
7961;SDS011;4026;43.652;24.906;2023-03-03T01:51:42;1.53;;;1.43;;
7961;SDS011;4026;43.652;24.906;2023-03-03T01:54:13;2.93;;;2.50;;
7961;SDS011;4026;43.652;24.906;2023-03-03T01:56:43;2.60;;;2.33;;
7961;SDS011;4026;43.652;24.906;2023-03-03T01:59:11;1.63;;;1.53;;
7961;SDS011;4026;43.652;24.906;2023-03-03T02:01:43;2.77;;;1.70;;
7961;SDS011;4026;43.652;24.906;2023-03-03T02:04:11;2.17;;;1.97;;
7961;SDS011;4026;43.652;24.906;2023-03-03T02:06:41;2.00;;;1.90;;
7961;SDS011;4026;43.652;24.906;2023-03-03T02:09:13;1.73;;;1.60;;
7961;SDS011;4026;43.652;24.906;2023-03-03T02:11:46;2.27;;;1.40;;
7961;SDS011;4026;43.652;24.906;2023-03-03T02:14:18;4.47;;;2.07;;
7961;SDS011;4026;43.652;24.906;2023-03-03T02:16:46;1.43;;;1.27;;
7961;SDS011;4026;43.652;24.906;2023-03-03T02:19:16;4.43;;;2.20;;
7961;SDS011;4026;43.652;24.906;2023-03-03T02:21:49;3.33;;;1.77;;
7961;SDS011;4026;43.652;24.906;2023-03-03T02:24:20;3.17;;;1.77;;
7961;SDS011;4026;43.652;24.906;2023-03-03T02:26:52;5.37;;;1.70;;
7961;SDS011;4026;43.652;24.906;2023-03-03T02:29:20;2.47;;;1.67;;
7961;SDS011;4026;43.652;24.906;2023-03-03T02:31:47;1.63;;;1.43;;
7961;SDS011;4026;43.652;24.906;2023-03-03T02:34:13;1.83;;;1.63;;
7961;SDS011;4026;43.652;24.906;2023-03-03T02:36:40;2.10;;;1.40;;
7961;SDS011;4026;43.652;24.906;2023-03-03T02:39:08;1.60;;;1.50;;
7961;SDS011;4026;43.652;24.906;2023-03-03T02:41:38;1.53;;;1.37;;
7961;SDS011;4026;43.652;24.906;2023-03-03T02:44:10;4.27;;;1.73;;
7961;SDS011;4026;43.652;24.906;2023-03-03T02:46:38;3.90;;;2.13;;
7961;SDS011;4026;43.652;24.906;2023-03-03T02:49:08;2.60;;;1.93;;
7961;SDS011;4026;43.652;24.906;2023-03-03T02:51:36;4.40;;;2.03;;
7961;SDS011;4026;43.652;24.906;2023-03-03T02:54:03;1.80;;;1.67;;
7961;SDS011;4026;43.652;24.906;2023-03-03T02:56:31;2.70;;;1.80;;
7961;SDS011;4026;43.652;24.906;2023-03-03T02:58:58;2.33;;;1.73;;
7961;SDS011;4026;43.652;24.906;2023-03-03T03:01:27;2.97;;;1.80;;
7961;SDS011;4026;43.652;24.906;2023-03-03T03:03:56;2.30;;;0.90;;
7961;SDS011;4026;43.652;24.906;2023-03-03T03:06:23;1.60;;;1.50;;
7961;SDS011;4026;43.652;24.906;2023-03-03T03:08:50;2.00;;;1.83;;
7961;SDS011;4026;43.652;24.906;2023-03-03T03:11:17;1.83;;;1.60;;
7961;SDS011;4026;43.652;24.906;2023-03-03T03:13:44;1.40;;;1.30;;
7961;SDS011;4026;43.652;24.906;2023-03-03T03:16:10;2.53;;;1.97;;
7961;SDS011;4026;43.652;24.906;2023-03-03T03:18:39;3.83;;;1.90;;
7961;SDS011;4026;43.652;24.906;2023-03-03T03:21:06;1.93;;;1.73;;
7961;SDS011;4026;43.652;24.906;2023-03-03T03:23:34;2.37;;;1.93;;
7961;SDS011;4026;43.652;24.906;2023-03-03T03:26:01;2.10;;;1.80;;
7961;SDS011;4026;43.652;24.906;2023-03-03T03:28:28;1.80;;;1.70;;
7961;SDS011;4026;43.652;24.906;2023-03-03T03:30:57;4.20;;;2.70;;
7961;SDS011;4026;43.652;24.906;2023-03-03T03:33:24;2.80;;;2.07;;
7961;SDS011;4026;43.652;24.906;2023-03-03T03:35:53;1.63;;;1.30;;
7961;SDS011;4026;43.652;24.906;2023-03-03T03:38:21;2.43;;;1.23;;
7961;SDS011;4026;43.652;24.906;2023-03-03T03:40:48;1.87;;;1.57;;
7961;SDS011;4026;43.652;24.906;2023-03-03T03:43:15;1.50;;;1.37;;
7961;SDS011;4026;43.652;24.906;2023-03-03T03:45:42;2.07;;;1.53;;
7961;SDS011;4026;43.652;24.906;2023-03-03T03:48:09;2.10;;;1.47;;
7961;SDS011;4026;43.652;24.906;2023-03-03T03:50:36;2.37;;;1.87;;
7961;SDS011;4026;43.652;24.906;2023-03-03T03:53:05;2.03;;;1.70;;
7961;SDS011;4026;43.652;24.906;2023-03-03T03:55:32;3.43;;;2.00;;
7961;SDS011;4026;43.652;24.906;2023-03-03T03:57:59;2.07;;;1.53;;
7961;SDS011;4026;43.652;24.906;2023-03-03T04:00:26;1.17;;;1.07;;
7961;SDS011;4026;43.652;24.906;2023-03-03T04:02:53;2.33;;;1.70;;
7961;SDS011;4026;43.652;24.906;2023-03-03T04:05:20;2.67;;;1.90;;
7961;SDS011;4026;43.652;24.906;2023-03-03T04:07:46;3.10;;;1.80;;
7961;SDS011;4026;43.652;24.906;2023-03-03T04:10:15;3.10;;;1.80;;
7961;SDS011;4026;43.652;24.906;2023-03-03T04:12:43;1.70;;;1.60;;
7961;SDS011;4026;43.652;24.906;2023-03-03T04:15:10;3.23;;;2.93;;
7961;SDS011;4026;43.652;24.906;2023-03-03T04:17:38;1.43;;;1.33;;
7961;SDS011;4026;43.652;24.906;2023-03-03T04:20:06;2.60;;;1.77;;
7961;SDS011;4026;43.652;24.906;2023-03-03T04:22:34;1.90;;;1.80;;
7961;SDS011;4026;43.652;24.906;2023-03-03T04:25:02;1.53;;;1.40;;
7961;SDS011;4026;43.652;24.906;2023-03-03T04:27:31;1.67;;;1.37;;
7961;SDS011;4026;43.652;24.906;2023-03-03T04:29:58;1.90;;;1.80;;
7961;SDS011;4026;43.652;24.906;2023-03-03T04:32:25;10.03;;;2.70;;
7961;SDS011;4026;43.652;24.906;2023-03-03T04:34:52;1.67;;;1.43;;
7961;SDS011;4026;43.652;24.906;2023-03-03T04:37:19;2.50;;;1.47;;
7961;SDS011;4026;43.652;24.906;2023-03-03T04:39:46;2.53;;;1.90;;
7961;SDS011;4026;43.652;24.906;2023-03-03T04:42:13;3.87;;;2.43;;
7961;SDS011;4026;43.652;24.906;2023-03-03T04:44:42;3.90;;;2.87;;
7961;SDS011;4026;43.652;24.906;2023-03-03T04:47:09;1.67;;;1.50;;
7961;SDS011;4026;43.652;24.906;2023-03-03T04:49:35;4.30;;;2.40;;
7961;SDS011;4026;43.652;24.906;2023-03-03T04:52:03;3.27;;;2.77;;
7961;SDS011;4026;43.652;24.906;2023-03-03T04:54:30;2.47;;;2.27;;
7961;SDS011;4026;43.652;24.906;2023-03-03T04:56:57;1.60;;;1.40;;
7961;SDS011;4026;43.652;24.906;2023-03-03T04:59:24;3.33;;;1.40;;
7961;SDS011;4026;43.652;24.906;2023-03-03T05:01:52;2.90;;;2.60;;
7961;SDS011;4026;43.652;24.906;2023-03-03T05:04:19;2.37;;;1.77;;
7961;SDS011;4026;43.652;24.906;2023-03-03T05:06:46;2.07;;;1.93;;
7961;SDS011;4026;43.652;24.906;2023-03-03T05:09:13;2.80;;;2.03;;
7961;SDS011;4026;43.652;24.906;2023-03-03T05:11:40;1.40;;;1.30;;
7961;SDS011;4026;43.652;24.906;2023-03-03T05:14:07;1.53;;;1.43;;
7961;SDS011;4026;43.652;24.906;2023-03-03T05:16:34;2.53;;;2.03;;
7961;SDS011;4026;43.652;24.906;2023-03-03T05:19:02;1.50;;;1.40;;
7961;SDS011;4026;43.652;24.906;2023-03-03T05:21:29;2.67;;;1.80;;
7961;SDS011;4026;43.652;24.906;2023-03-03T05:23:55;2.53;;;2.33;;
7961;SDS011;4026;43.652;24.906;2023-03-03T05:26:22;1.83;;;1.73;;
7961;SDS011;4026;43.652;24.906;2023-03-03T05:28:49;1.40;;;1.30;;
7961;SDS011;4026;43.652;24.906;2023-03-03T05:31:16;1.83;;;1.67;;
7961;SDS011;4026;43.652;24.906;2023-03-03T05:33:43;1.93;;;1.63;;
7961;SDS011;4026;43.652;24.906;2023-03-03T05:36:11;2.37;;;1.73;;
7961;SDS011;4026;43.652;24.906;2023-03-03T05:38:38;2.20;;;2.00;;
7961;SDS011;4026;43.652;24.906;2023-03-03T05:41:05;4.80;;;2.73;;
7961;SDS011;4026;43.652;24.906;2023-03-03T05:43:31;2.27;;;1.97;;
7961;SDS011;4026;43.652;24.906;2023-03-03T05:45:58;2.40;;;2.07;;
7961;SDS011;4026;43.652;24.906;2023-03-03T05:48:25;2.27;;;1.67;;
7961;SDS011;4026;43.652;24.906;2023-03-03T05:50:52;4.23;;;2.00;;
7961;SDS011;4026;43.652;24.906;2023-03-03T05:53:20;3.17;;;2.30;;
7961;SDS011;4026;43.652;24.906;2023-03-03T05:55:47;2.77;;;1.80;;
7961;SDS011;4026;43.652;24.906;2023-03-03T05:58:14;3.30;;;2.47;;
7961;SDS011;4026;43.652;24.906;2023-03-03T06:00:41;2.87;;;1.93;;
7961;SDS011;4026;43.652;24.906;2023-03-03T06:03:08;3.00;;;2.10;;
7961;SDS011;4026;43.652;24.906;2023-03-03T06:05:35;10.97;;;2.77;;
7961;SDS011;4026;43.652;24.906;2023-03-03T06:08:02;2.10;;;1.90;;
7961;SDS011;4026;43.652;24.906;2023-03-03T06:10:30;2.50;;;1.67;;
7961;SDS011;4026;43.652;24.906;2023-03-03T06:12:57;2.00;;;1.70;;
7961;SDS011;4026;43.652;24.906;2023-03-03T06:15:24;5.43;;;2.33;;
7961;SDS011;4026;43.652;24.906;2023-03-03T06:17:51;2.83;;;2.40;;
7961;SDS011;4026;43.652;24.906;2023-03-03T06:20:18;8.63;;;2.43;;
7961;SDS011;4026;43.652;24.906;2023-03-03T06:22:45;3.83;;;2.80;;
7961;SDS011;4026;43.652;24.906;2023-03-03T06:25:12;2.13;;;1.93;;
7961;SDS011;4026;43.652;24.906;2023-03-03T06:27:41;2.83;;;2.33;;
7961;SDS011;4026;43.652;24.906;2023-03-03T06:30:09;2.93;;;2.67;;
7961;SDS011;4026;43.652;24.906;2023-03-03T06:32:37;3.57;;;2.30;;
7961;SDS011;4026;43.652;24.906;2023-03-03T06:35:04;5.80;;;3.27;;
7961;SDS011;4026;43.652;24.906;2023-03-03T06:37:31;5.03;;;3.67;;
7961;SDS011;4026;43.652;24.906;2023-03-03T06:39:58;3.37;;;2.47;;
7961;SDS011;4026;43.652;24.906;2023-03-03T06:42:25;7.73;;;3.17;;
7961;SDS011;4026;43.652;24.906;2023-03-03T06:44:53;4.87;;;2.40;;
7961;SDS011;4026;43.652;24.906;2023-03-03T06:47:20;3.07;;;2.57;;
7961;SDS011;4026;43.652;24.906;2023-03-03T06:49:47;6.10;;;3.00;;
7961;SDS011;4026;43.652;24.906;2023-03-03T06:52:15;2.90;;;2.10;;
7961;SDS011;4026;43.652;24.906;2023-03-03T06:54:45;2.63;;;2.07;;
7961;SDS011;4026;43.652;24.906;2023-03-03T06:57:16;5.43;;;2.67;;
7961;SDS011;4026;43.652;24.906;2023-03-03T06:59:46;4.07;;;1.93;;
7961;SDS011;4026;43.652;24.906;2023-03-03T07:02:18;2.70;;;2.50;;
7961;SDS011;4026;43.652;24.906;2023-03-03T07:04:47;4.53;;;2.77;;
7961;SDS011;4026;43.652;24.906;2023-03-03T07:07:15;2.10;;;1.60;;
7961;SDS011;4026;43.652;24.906;2023-03-03T07:09:45;2.67;;;1.90;;
7961;SDS011;4026;43.652;24.906;2023-03-03T07:12:15;3.63;;;2.30;;
7961;SDS011;4026;43.652;24.906;2023-03-03T07:14:44;2.17;;;1.60;;
7961;SDS011;4026;43.652;24.906;2023-03-03T07:17:16;9.30;;;2.50;;
7961;SDS011;4026;43.652;24.906;2023-03-03T07:19:46;6.67;;;3.10;;
7961;SDS011;4026;43.652;24.906;2023-03-03T07:22:14;4.30;;;2.60;;
7961;SDS011;4026;43.652;24.906;2023-03-03T07:24:42;3.00;;;2.30;;
7961;SDS011;4026;43.652;24.906;2023-03-03T07:27:13;2.53;;;1.83;;
7961;SDS011;4026;43.652;24.906;2023-03-03T07:29:43;2.83;;;2.50;;
7961;SDS011;4026;43.652;24.906;2023-03-03T07:32:17;1.83;;;1.73;;
7961;SDS011;4026;43.652;24.906;2023-03-03T07:34:51;4.60;;;2.23;;
7961;SDS011;4026;43.652;24.906;2023-03-03T07:37:24;2.83;;;1.10;;
7961;SDS011;4026;43.652;24.906;2023-03-03T07:39:55;9.00;;;3.03;;
7961;SDS011;4026;43.652;24.906;2023-03-03T07:42:23;7.60;;;3.73;;
7961;SDS011;4026;43.652;24.906;2023-03-03T07:44:53;2.23;;;1.67;;
7961;SDS011;4026;43.652;24.906;2023-03-03T07:47:24;3.30;;;2.70;;
7961;SDS011;4026;43.652;24.906;2023-03-03T07:49:53;4.47;;;2.33;;
7961;SDS011;4026;43.652;24.906;2023-03-03T07:52:23;2.77;;;2.43;;
7961;SDS011;4026;43.652;24.906;2023-03-03T07:54:52;4.77;;;3.20;;
7961;SDS011;4026;43.652;24.906;2023-03-03T07:57:21;4.13;;;2.23;;
7961;SDS011;4026;43.652;24.906;2023-03-03T07:59:51;4.20;;;2.10;;
7961;SDS011;4026;43.652;24.906;2023-03-03T08:02:32;7.00;;;3.37;;
7961;SDS011;4026;43.652;24.906;2023-03-03T08:05:16;8.43;;;3.23;;
7961;SDS011;4026;43.652;24.906;2023-03-03T08:07:51;2.17;;;1.77;;
7961;SDS011;4026;43.652;24.906;2023-03-03T08:10:27;4.17;;;2.47;;
7961;SDS011;4026;43.652;24.906;2023-03-03T08:13:07;5.23;;;2.70;;
7961;SDS011;4026;43.652;24.906;2023-03-03T08:15:41;5.03;;;2.77;;
7961;SDS011;4026;43.652;24.906;2023-03-03T08:18:15;2.67;;;2.10;;
7961;SDS011;4026;43.652;24.906;2023-03-03T08:20:47;4.27;;;2.80;;
7961;SDS011;4026;43.652;24.906;2023-03-03T08:23:16;4.43;;;2.73;;
7961;SDS011;4026;43.652;24.906;2023-03-03T08:25:44;4.10;;;3.57;;
7961;SDS011;4026;43.652;24.906;2023-03-03T08:28:11;4.40;;;2.90;;
7961;SDS011;4026;43.652;24.906;2023-03-03T08:30:39;5.27;;;2.77;;
7961;SDS011;4026;43.652;24.906;2023-03-03T08:33:07;4.70;;;2.67;;
7961;SDS011;4026;43.652;24.906;2023-03-03T08:35:35;7.10;;;2.77;;
7961;SDS011;4026;43.652;24.906;2023-03-03T08:38:02;9.17;;;4.20;;
7961;SDS011;4026;43.652;24.906;2023-03-03T08:40:30;6.20;;;2.07;;
7961;SDS011;4026;43.652;24.906;2023-03-03T08:42:57;11.00;;;3.53;;
7961;SDS011;4026;43.652;24.906;2023-03-03T08:45:25;4.23;;;3.23;;
7961;SDS011;4026;43.652;24.906;2023-03-03T08:47:52;3.97;;;3.30;;
7961;SDS011;4026;43.652;24.906;2023-03-03T08:50:19;2.17;;;2.00;;
7961;SDS011;4026;43.652;24.906;2023-03-03T08:52:48;6.47;;;2.90;;
7961;SDS011;4026;43.652;24.906;2023-03-03T08:55:15;5.67;;;3.93;;
7961;SDS011;4026;43.652;24.906;2023-03-03T08:57:42;5.87;;;2.93;;
7961;SDS011;4026;43.652;24.906;2023-03-03T09:00:09;5.33;;;3.60;;
7961;SDS011;4026;43.652;24.906;2023-03-03T09:02:38;4.30;;;2.67;;
7961;SDS011;4026;43.652;24.906;2023-03-03T09:05:05;3.03;;;2.53;;
7961;SDS011;4026;43.652;24.906;2023-03-03T09:07:33;5.37;;;2.53;;
7961;SDS011;4026;43.652;24.906;2023-03-03T09:10:02;4.53;;;3.53;;
7961;SDS011;4026;43.652;24.906;2023-03-03T09:12:31;3.43;;;2.63;;
7961;SDS011;4026;43.652;24.906;2023-03-03T09:15:05;5.93;;;3.33;;
7961;SDS011;4026;43.652;24.906;2023-03-03T09:17:38;5.03;;;3.53;;
7961;SDS011;4026;43.652;24.906;2023-03-03T09:20:14;3.13;;;2.83;;
7961;SDS011;4026;43.652;24.906;2023-03-03T09:22:48;3.43;;;2.27;;
7961;SDS011;4026;43.652;24.906;2023-03-03T09:25:20;5.57;;;3.53;;
7961;SDS011;4026;43.652;24.906;2023-03-03T09:27:51;4.50;;;3.33;;
7961;SDS011;4026;43.652;24.906;2023-03-03T09:30:28;4.70;;;3.17;;
7961;SDS011;4026;43.652;24.906;2023-03-03T09:33:01;3.63;;;2.20;;
7961;SDS011;4026;43.652;24.906;2023-03-03T09:35:49;3.67;;;2.00;;
7961;SDS011;4026;43.652;24.906;2023-03-03T09:38:24;3.17;;;2.87;;
7961;SDS011;4026;43.652;24.906;2023-03-03T09:44:09;3.90;;;3.10;;
7961;SDS011;4026;43.652;24.906;2023-03-03T09:46:57;4.10;;;3.03;;
7961;SDS011;4026;43.652;24.906;2023-03-03T09:49:35;5.37;;;3.27;;
7961;SDS011;4026;43.652;24.906;2023-03-03T09:52:16;4.07;;;3.67;;
7961;SDS011;4026;43.652;24.906;2023-03-03T09:54:53;6.23;;;4.10;;
7961;SDS011;4026;43.652;24.906;2023-03-03T09:57:32;3.67;;;2.93;;
7961;SDS011;4026;43.652;24.906;2023-03-03T10:00:23;5.00;;;3.33;;
7961;SDS011;4026;43.652;24.906;2023-03-03T10:03:04;10.17;;;3.37;;
7961;SDS011;4026;43.652;24.906;2023-03-03T10:05:48;7.40;;;4.03;;
7961;SDS011;4026;43.652;24.906;2023-03-03T10:08:29;5.53;;;3.37;;
7961;SDS011;4026;43.652;24.906;2023-03-03T10:11:07;4.40;;;2.83;;
7961;SDS011;4026;43.652;24.906;2023-03-03T10:13:52;4.73;;;2.93;;
7961;SDS011;4026;43.652;24.906;2023-03-03T10:16:33;7.37;;;4.53;;
7961;SDS011;4026;43.652;24.906;2023-03-03T10:19:19;4.23;;;3.23;;
7961;SDS011;4026;43.652;24.906;2023-03-03T10:22:00;6.30;;;4.00;;
7961;SDS011;4026;43.652;24.906;2023-03-03T10:24:37;8.13;;;4.63;;
7961;SDS011;4026;43.652;24.906;2023-03-03T10:27:11;6.83;;;4.27;;
7961;SDS011;4026;43.652;24.906;2023-03-03T10:29:54;5.17;;;3.67;;
7961;SDS011;4026;43.652;24.906;2023-03-03T10:32:35;8.30;;;4.13;;
7961;SDS011;4026;43.652;24.906;2023-03-03T10:41:16;6.57;;;4.40;;
7961;SDS011;4026;43.652;24.906;2023-03-03T10:44:01;5.60;;;3.37;;
7961;SDS011;4026;43.652;24.906;2023-03-03T10:46:49;4.97;;;3.37;;
7961;SDS011;4026;43.652;24.906;2023-03-03T10:49:31;5.50;;;3.57;;
7961;SDS011;4026;43.652;24.906;2023-03-03T10:52:15;7.67;;;3.90;;
7961;SDS011;4026;43.652;24.906;2023-03-03T10:54:55;6.47;;;4.37;;
7961;SDS011;4026;43.652;24.906;2023-03-03T10:57:33;5.90;;;3.33;;
7961;SDS011;4026;43.652;24.906;2023-03-03T11:00:12;5.33;;;4.00;;
7961;SDS011;4026;43.652;24.906;2023-03-03T11:02:50;3.40;;;3.03;;
7961;SDS011;4026;43.652;24.906;2023-03-03T11:05:43;5.93;;;4.23;;
7961;SDS011;4026;43.652;24.906;2023-03-03T11:08:16;6.03;;;4.53;;
7961;SDS011;4026;43.652;24.906;2023-03-03T11:10:50;5.97;;;2.53;;
7961;SDS011;4026;43.652;24.906;2023-03-03T11:13:27;5.43;;;3.70;;
7961;SDS011;4026;43.652;24.906;2023-03-03T11:16:05;10.77;;;3.57;;
7961;SDS011;4026;43.652;24.906;2023-03-03T11:18:59;7.93;;;5.53;;
7961;SDS011;4026;43.652;24.906;2023-03-03T11:21:40;7.10;;;4.37;;
7961;SDS011;4026;43.652;24.906;2023-03-03T11:24:14;7.40;;;3.57;;
7961;SDS011;4026;43.652;24.906;2023-03-03T11:26:55;4.97;;;3.97;;
7961;SDS011;4026;43.652;24.906;2023-03-03T11:29:46;5.63;;;4.57;;
7961;SDS011;4026;43.652;24.906;2023-03-03T11:32:25;5.67;;;3.80;;
7961;SDS011;4026;43.652;24.906;2023-03-03T11:35:01;4.73;;;3.70;;
7961;SDS011;4026;43.652;24.906;2023-03-03T11:37:44;4.73;;;3.63;;
7961;SDS011;4026;43.652;24.906;2023-03-03T11:40:16;9.23;;;4.70;;
7961;SDS011;4026;43.652;24.906;2023-03-03T11:42:51;6.20;;;3.07;;
7961;SDS011;4026;43.652;24.906;2023-03-03T11:45:26;4.60;;;3.43;;
7961;SDS011;4026;43.652;24.906;2023-03-03T11:48:00;7.20;;;4.23;;
7961;SDS011;4026;43.652;24.906;2023-03-03T11:50:35;9.80;;;4.97;;
7961;SDS011;4026;43.652;24.906;2023-03-03T11:53:12;8.43;;;4.33;;
7961;SDS011;4026;43.652;24.906;2023-03-03T11:55:51;8.37;;;4.93;;
7961;SDS011;4026;43.652;24.906;2023-03-03T11:58:26;7.30;;;4.27;;
7961;SDS011;4026;43.652;24.906;2023-03-03T12:00:56;6.90;;;4.43;;
7961;SDS011;4026;43.652;24.906;2023-03-03T12:03:32;5.33;;;3.30;;
7961;SDS011;4026;43.652;24.906;2023-03-03T12:06:11;5.13;;;3.23;;
7961;SDS011;4026;43.652;24.906;2023-03-03T12:11:42;5.70;;;3.83;;
7961;SDS011;4026;43.652;24.906;2023-03-03T12:14:17;7.63;;;3.43;;
7961;SDS011;4026;43.652;24.906;2023-03-03T12:16:57;6.80;;;4.40;;
7961;SDS011;4026;43.652;24.906;2023-03-03T12:19:31;4.67;;;3.50;;
7961;SDS011;4026;43.652;24.906;2023-03-03T12:22:07;5.60;;;3.80;;
7961;SDS011;4026;43.652;24.906;2023-03-03T12:24:48;8.33;;;3.23;;
7961;SDS011;4026;43.652;24.906;2023-03-03T12:27:32;5.27;;;3.67;;
7961;SDS011;4026;43.652;24.906;2023-03-03T12:30:08;6.43;;;3.70;;
7961;SDS011;4026;43.652;24.906;2023-03-03T12:32:48;6.90;;;3.77;;
7961;SDS011;4026;43.652;24.906;2023-03-03T12:35:30;6.33;;;4.07;;
7961;SDS011;4026;43.652;24.906;2023-03-03T12:38:05;5.03;;;4.33;;
7961;SDS011;4026;43.652;24.906;2023-03-03T12:40:43;5.97;;;3.53;;
7961;SDS011;4026;43.652;24.906;2023-03-03T12:43:21;6.73;;;4.27;;
7961;SDS011;4026;43.652;24.906;2023-03-03T12:46:02;5.77;;;4.13;;
7961;SDS011;4026;43.652;24.906;2023-03-03T12:48:37;7.00;;;4.40;;
7961;SDS011;4026;43.652;24.906;2023-03-03T12:51:10;6.00;;;4.13;;
7961;SDS011;4026;43.652;24.906;2023-03-03T12:53:59;9.17;;;4.37;;
7961;SDS011;4026;43.652;24.906;2023-03-03T12:56:39;8.40;;;4.10;;
7961;SDS011;4026;43.652;24.906;2023-03-03T12:59:13;9.80;;;4.13;;
7961;SDS011;4026;43.652;24.906;2023-03-03T13:01:47;6.27;;;3.67;;
7961;SDS011;4026;43.652;24.906;2023-03-03T13:04:27;5.90;;;3.90;;
7961;SDS011;4026;43.652;24.906;2023-03-03T13:07:03;6.23;;;3.53;;
7961;SDS011;4026;43.652;24.906;2023-03-03T13:09:37;7.33;;;4.27;;
7961;SDS011;4026;43.652;24.906;2023-03-03T13:12:26;5.93;;;3.23;;
7961;SDS011;4026;43.652;24.906;2023-03-03T13:15:02;7.37;;;4.17;;
7961;SDS011;4026;43.652;24.906;2023-03-03T13:17:37;7.90;;;4.70;;
7961;SDS011;4026;43.652;24.906;2023-03-03T13:20:14;5.27;;;4.10;;
7961;SDS011;4026;43.652;24.906;2023-03-03T13:22:49;9.47;;;5.07;;
7961;SDS011;4026;43.652;24.906;2023-03-03T13:25:30;5.50;;;3.13;;
7961;SDS011;4026;43.652;24.906;2023-03-03T13:28:09;11.07;;;6.30;;
7961;SDS011;4026;43.652;24.906;2023-03-03T13:30:45;5.80;;;3.17;;
7961;SDS011;4026;43.652;24.906;2023-03-03T13:33:15;9.03;;;5.53;;
7961;SDS011;4026;43.652;24.906;2023-03-03T13:35:47;3.93;;;3.30;;
7961;SDS011;4026;43.652;24.906;2023-03-03T13:38:17;8.87;;;5.23;;
7961;SDS011;4026;43.652;24.906;2023-03-03T13:40:49;8.63;;;4.87;;
7961;SDS011;4026;43.652;24.906;2023-03-03T13:43:21;5.60;;;4.47;;
7961;SDS011;4026;43.652;24.906;2023-03-03T13:45:57;6.10;;;3.97;;
7961;SDS011;4026;43.652;24.906;2023-03-03T13:48:36;6.13;;;3.67;;
7961;SDS011;4026;43.652;24.906;2023-03-03T13:51:18;6.37;;;4.27;;
7961;SDS011;4026;43.652;24.906;2023-03-03T13:53:57;9.20;;;4.73;;
7961;SDS011;4026;43.652;24.906;2023-03-03T13:59:39;7.90;;;4.03;;
7961;SDS011;4026;43.652;24.906;2023-03-03T14:02:20;8.30;;;4.93;;
7961;SDS011;4026;43.652;24.906;2023-03-03T14:05:08;5.33;;;3.53;;
7961;SDS011;4026;43.652;24.906;2023-03-03T14:07:42;9.53;;;5.07;;
7961;SDS011;4026;43.652;24.906;2023-03-03T14:10:16;9.00;;;4.63;;
7961;SDS011;4026;43.652;24.906;2023-03-03T14:12:46;12.43;;;4.83;;
7961;SDS011;4026;43.652;24.906;2023-03-03T14:15:24;8.37;;;4.97;;
7961;SDS011;4026;43.652;24.906;2023-03-03T14:18:02;5.43;;;3.83;;
7961;SDS011;4026;43.652;24.906;2023-03-03T14:20:42;6.03;;;4.43;;
7961;SDS011;4026;43.652;24.906;2023-03-03T14:23:13;7.77;;;5.17;;
7961;SDS011;4026;43.652;24.906;2023-03-03T14:25:55;3.40;;;2.87;;
7961;SDS011;4026;43.652;24.906;2023-03-03T14:28:24;7.20;;;4.23;;
7961;SDS011;4026;43.652;24.906;2023-03-03T14:30:55;8.67;;;5.20;;
7961;SDS011;4026;43.652;24.906;2023-03-03T14:33:27;6.03;;;4.20;;
7961;SDS011;4026;43.652;24.906;2023-03-03T14:36:04;9.23;;;4.50;;
7961;SDS011;4026;43.652;24.906;2023-03-03T14:38:36;4.70;;;4.10;;
7961;SDS011;4026;43.652;24.906;2023-03-03T14:41:11;6.03;;;4.70;;
7961;SDS011;4026;43.652;24.906;2023-03-03T14:43:41;5.43;;;3.90;;
7961;SDS011;4026;43.652;24.906;2023-03-03T14:46:21;4.57;;;3.47;;
7961;SDS011;4026;43.652;24.906;2023-03-03T14:49:01;5.40;;;3.13;;
7961;SDS011;4026;43.652;24.906;2023-03-03T14:51:32;6.40;;;3.80;;
7961;SDS011;4026;43.652;24.906;2023-03-03T14:54:08;4.90;;;3.67;;
7961;SDS011;4026;43.652;24.906;2023-03-03T14:56:53;4.53;;;2.93;;
7961;SDS011;4026;43.652;24.906;2023-03-03T14:59:23;7.43;;;3.83;;
7961;SDS011;4026;43.652;24.906;2023-03-03T15:01:57;6.23;;;3.80;;
7961;SDS011;4026;43.652;24.906;2023-03-03T15:04:35;4.00;;;3.33;;
7961;SDS011;4026;43.652;24.906;2023-03-03T15:07:14;5.73;;;3.40;;
7961;SDS011;4026;43.652;24.906;2023-03-03T15:09:52;6.37;;;4.13;;
7961;SDS011;4026;43.652;24.906;2023-03-03T15:12:19;5.80;;;3.90;;
7961;SDS011;4026;43.652;24.906;2023-03-03T15:14:47;7.60;;;3.13;;
7961;SDS011;4026;43.652;24.906;2023-03-03T15:17:19;9.07;;;4.37;;
7961;SDS011;4026;43.652;24.906;2023-03-03T15:19:54;6.00;;;4.13;;
7961;SDS011;4026;43.652;24.906;2023-03-03T15:22:41;6.13;;;4.33;;
7961;SDS011;4026;43.652;24.906;2023-03-03T15:25:14;7.30;;;4.17;;
7961;SDS011;4026;43.652;24.906;2023-03-03T15:27:48;6.47;;;4.40;;
7961;SDS011;4026;43.652;24.906;2023-03-03T15:30:21;9.10;;;4.80;;
7961;SDS011;4026;43.652;24.906;2023-03-03T15:32:56;6.60;;;3.83;;
7961;SDS011;4026;43.652;24.906;2023-03-03T15:35:35;10.67;;;4.67;;
7961;SDS011;4026;43.652;24.906;2023-03-03T15:38:12;8.40;;;5.10;;
7961;SDS011;4026;43.652;24.906;2023-03-03T15:40:48;4.70;;;4.10;;
7961;SDS011;4026;43.652;24.906;2023-03-03T15:43:21;10.80;;;5.50;;
7961;SDS011;4026;43.652;24.906;2023-03-03T15:45:56;6.77;;;5.03;;